Storm Events Database

Event Details

Event Hail
Magnitude 0.75 in.
State TEXAS
County/Area COLLIN
WFO FWD
Begin Date 05/30/2007 08:45:00 CST-6
Begin Range 0
Begin Azimuth W
Begin Location MCKINNEY
Begin Lat/Lon 33.2/-96.62
End Date 05/30/2007 08:45:00 CST-6
Deaths Direct/Indirect 0/0 (fatality details below, when available...)
Injuries Direct/Indirect 0/0
Property Damage 0.00K
Crop Damage 0.00K
Episode Narrative A convective system which moved through Oklahoma arrived in north Texas around daybreak on the 30th. Numerous reports of large hail and wind damage were recieved as well as flash flooding. Storms formed again on the 31st as a strong low level jet helped initiate storms along boundaries left from storms the day before.
Event Narrative Occurred near the intersection of FM 2478 and FM 720.


All events for this episode:

Location County/Zone St. Date Time T.Z. Type Mag Dth Inj PrD CrD
Totals: 0 0 435.00K 0.00K
TELEPHONE FANNIN CO. TX 05/30/2007 05:35 CST-6 Thunderstorm Wind 50 kts. EG 0 0 5.00K 0.00K
GAINESVILLE COOKE CO. TX 05/30/2007 06:42 CST-6 Thunderstorm Wind 50 kts. EG 0 0 3.00K 0.00K
VAN ALSTYNE GRAYSON CO. TX 05/30/2007 06:55 CST-6 Hail 0.75 in. 0 0 0.00K 0.00K
LAKE TAWAKONI HUNT CO. TX 05/30/2007 07:00 CST-6 Thunderstorm Wind 50 kts. EG 0 0 0.00K 0.00K
GAINESVILLE COOKE CO. TX 05/30/2007 07:00 CST-6 Flash Flood 0 0 0.00K 0.00K
FORESTBURG MONTAGUE CO. TX 05/30/2007 07:29 CST-6 Hail 1.50 in. 0 0 5.00K 0.00K
BONHAM FANNIN CO. TX 05/30/2007 07:30 CST-6 Thunderstorm Wind 50 kts. EG 0 0 0.00K 0.00K
BONHAM FANNIN CO. TX 05/30/2007 07:41 CST-6 Flash Flood 0 0 0.00K 0.00K
BAILEY FANNIN CO. TX 05/30/2007 07:55 CST-6 Thunderstorm Wind 50 kts. EG 0 0 1.00K 0.00K
PILOT PT DENTON CO. TX 05/30/2007 08:00 CST-6 Thunderstorm Wind 50 kts. EG 0 0 50.00K 0.00K
LAKE TAWAKONI HUNT CO. TX 05/30/2007 08:00 CST-6 Thunderstorm Wind 50 kts. EG 0 0 0.00K 0.00K
DENTON DENTON CO. TX 05/30/2007 08:10 CST-6 Flash Flood 0 0 25.00K 0.00K
WOLFE CITY HUNT CO. TX 05/30/2007 08:20 CST-6 Thunderstorm Wind 52 kts. EG 0 0 0.00K 0.00K
WOLFE CITY HUNT CO. TX 05/30/2007 08:20 CST-6 Flash Flood 0 0 5.00K 0.00K
CORINTH DENTON CO. TX 05/30/2007 08:22 CST-6 Hail 1.00 in. 0 0 0.00K 0.00K
MCKINNEY COLLIN CO. TX 05/30/2007 08:30 CST-6 Flash Flood 0 0 10.00K 0.00K
VAN ALSTYNE GRAYSON CO. TX 05/30/2007 08:35 CST-6 Flash Flood 0 0 5.00K 0.00K
MCKINNEY COLLIN CO. TX 05/30/2007 08:45 CST-6 Hail 0.75 in. 0 0 0.00K 0.00K
PLANO COLLIN CO. TX 05/30/2007 08:47 CST-6 Thunderstorm Wind 50 kts. EG 0 0 15.00K 0.00K
DENTON DENTON CO. TX 05/30/2007 09:00 CST-6 Thunderstorm Wind 50 kts. EG 0 0 3.00K 0.00K
ARGYLE DENTON CO. TX 05/30/2007 09:00 CST-6 Lightning 0 0 215.00K 0.00K
ADDISON DALLAS CO. TX 05/30/2007 09:04 CST-6 Thunderstorm Wind 55 kts. EG 0 0 18.00K 0.00K
MURPHY COLLIN CO. TX 05/30/2007 09:05 CST-6 Hail 0.75 in. 0 0 0.00K 0.00K
ROYSE CITY ROCKWALL CO. TX 05/30/2007 09:09 CST-6 Hail 1.00 in. 0 0 0.00K 0.00K
LEWISVILLE DENTON CO. TX 05/30/2007 09:10 CST-6 Hail 0.75 in. 0 0 0.00K 0.00K
BURLESON JOHNSON CO. TX 05/30/2007 09:19 CST-6 Thunderstorm Wind 50 kts. EG 0 0 0.00K 0.00K
ANNA COLLIN CO. TX 05/30/2007 09:20 CST-6 Lightning 0 0 50.00K 0.00K
FT WORTH TARRANT CO. TX 05/30/2007 09:30 CST-6 Flash Flood 0 0 0.00K 0.00K
FT WORTH TARRANT CO. TX 05/30/2007 09:30 CST-6 Flash Flood 0 0 0.00K 0.00K
DALLAS LOVE FLD DALLAS CO. TX 05/30/2007 09:46 CST-6 Flash Flood 0 0 3.00K 0.00K
EMORY RAINS CO. TX 05/30/2007 10:02 CST-6 Thunderstorm Wind 50 kts. EG 0 0 2.00K 0.00K
CISCO EASTLAND CO. TX 05/30/2007 19:58 CST-6 Hail 1.00 in. 0 0 0.00K 0.00K
GRANBURY HOOD CO. TX 05/31/2007 00:15 CST-6 Flash Flood 0 0 0.00K 0.00K
CRESSON HOOD CO. TX 05/31/2007 00:15 CST-6 Hail 0.75 in. 0 0 0.00K 0.00K
STAR MILLS CO. TX 05/31/2007 02:31 CST-6 Hail 0.88 in. 0 0 0.00K 0.00K
STAR MILLS CO. TX 05/31/2007 03:11 CST-6 Hail 0.88 in. 0 0 0.00K 0.00K
STAR MILLS CO. TX 05/31/2007 03:15 CST-6 Hail 1.75 in. 0 0 0.00K 0.00K
STAR MILLS CO. TX 05/31/2007 03:15 CST-6 Thunderstorm Wind 61 kts. MG 0 0 0.00K 0.00K
STAR MILLS CO. TX 05/31/2007 03:15 CST-6 Thunderstorm Wind 61 kts. EG 0 0 20.00K 0.00K
LOMETA LAMPASAS CO. TX 05/31/2007 03:40 CST-6 Thunderstorm Wind 56 kts. MG 0 0 0.00K 0.00K
STAR MILLS CO. TX 05/31/2007 03:44 CST-6 Flash Flood 0 0 0.00K 0.00K
LOMETA LAMPASAS CO. TX 05/31/2007 04:00 CST-6 Flash Flood 0 0 0.00K 0.00K
Totals: 0 0 435.00K 0.00K